Ira Township, Michigan
Current Conditions -  °F | °C
As of 7:55 PM on Saturday 22 Nov 2014 (Local Time) from KMTC Reporting Station
Overcast Overcast  
Wind Chill: 42°   Ceiling: 2600
Heat Index: 47°   Visibility: 10mi
Dew Point: 46°   Wind: 10mph
Humidity: 97%   Direction: 210°SSW
Pressure: 29.92"   Gusts: NA
Location:  42.7011°N, 82.659°W
Report Text: KMTC 230055Z 21009KT 10SM OVC026 08/08 A2992 RMK SLP143 T00830079
Loading
Personal Weather Stations






























Interactive Weather Map New forecast layout! Learn more

10-Day Weather Forecast

Advertisements
Track Severe Weather on mobile